createdAt,value
2017-11-30T00:00:03.965Z,86.30
2017-11-30T00:05:05.489Z,86.20
2017-11-30T00:10:07.039Z,86.30
2017-11-30T00:15:08.557Z,86.50
2017-11-30T00:20:10.058Z,86.50
2017-11-30T00:25:12.307Z,86.60
2017-11-30T00:30:13.827Z,86.50
2017-11-30T00:35:15.327Z,86.40
2017-11-30T00:40:16.867Z,85.90
2017-11-30T00:45:18.374Z,85.80
2017-11-30T00:50:19.886Z,86.00
2017-11-30T00:55:21.411Z,86.00
2017-11-30T01:00:22.915Z,85.70
2017-11-30T01:05:25.161Z,85.90
2017-11-30T01:10:26.688Z,85.90
2017-11-30T01:15:28.203Z,86.20
2017-11-30T01:20:29.694Z,86.30
2017-11-30T01:25:31.974Z,85.90
2017-11-30T01:30:34.236Z,85.90
2017-11-30T01:35:35.756Z,85.90
2017-11-30T01:40:37.307Z,85.70
2017-11-30T01:45:38.849Z,85.60
2017-11-30T01:50:40.363Z,85.70
2017-11-30T01:55:41.877Z,85.90
2017-11-30T02:00:43.366Z,85.90
2017-11-30T02:05:45.603Z,85.90
2017-11-30T02:10:47.101Z,85.70
2017-11-30T02:15:48.613Z,85.90
2017-11-30T02:20:50.148Z,86.20
2017-11-30T02:25:52.451Z,86.60
2017-11-30T02:30:53.951Z,85.80
2017-11-30T02:35:55.532Z,84.80
2017-11-30T02:40:57.058Z,84.80
2017-11-30T02:45:58.578Z,84.90
2017-11-30T02:51:00.029Z,86.00
2017-11-30T02:56:01.540Z,85.50
2017-11-30T03:01:03.792Z,85.50
2017-11-30T03:06:05.322Z,85.50
2017-11-30T03:11:06.865Z,85.50
2017-11-30T03:16:09.121Z,85.90
2017-11-30T03:21:10.645Z,85.80
2017-11-30T03:26:12.201Z,86.00
2017-11-30T03:31:13.826Z,86.10
2017-11-30T03:36:15.333Z,85.80
2017-11-30T03:41:16.871Z,86.20
2017-11-30T03:46:19.140Z,86.40
2017-11-30T03:51:20.684Z,86.40
2017-11-30T03:56:22.209Z,86.00
2017-11-30T04:01:23.784Z,85.60
2017-11-30T04:06:25.479Z,85.70
2017-11-30T04:11:27.000Z,85.00
2017-11-30T04:16:29.363Z,86.20
2017-11-30T04:21:30.895Z,86.10
2017-11-30T04:26:32.456Z,86.80
2017-11-30T04:31:34.014Z,87.10
2017-11-30T04:36:35.737Z,87.20
2017-11-30T04:41:37.271Z,87.10
2017-11-30T04:46:38.799Z,87.10
2017-11-30T04:51:41.064Z,87.10
2017-11-30T04:56:43.370Z,86.80
2017-11-30T05:01:44.943Z,86.80
2017-11-30T05:06:46.493Z,86.00
2017-11-30T05:11:47.998Z,85.00
2017-11-30T05:16:49.518Z,83.70
2017-11-30T05:21:51.035Z,81.80
2017-11-30T05:26:52.573Z,81.90
2017-11-30T05:31:54.827Z,81.60
2017-11-30T05:36:56.409Z,81.60
2017-11-30T05:41:58.248Z,82.40
2017-11-30T05:46:59.788Z,82.70
2017-11-30T05:52:01.312Z,82.80
2017-11-30T05:57:03.026Z,83.00
2017-11-30T06:02:04.571Z,82.30
2017-11-30T06:07:06.827Z,81.80
2017-11-30T06:12:08.343Z,81.80
2017-11-30T06:17:09.869Z,81.80
2017-11-30T06:22:11.384Z,81.50
2017-11-30T06:27:12.943Z,81.30
2017-11-30T06:32:14.509Z,80.90
2017-11-30T06:37:16.025Z,81.40
2017-11-30T06:42:17.612Z,81.60
2017-11-30T06:47:19.135Z,81.80
2017-11-30T06:52:20.723Z,82.60
2017-11-30T06:57:22.272Z,83.10
2017-11-30T07:02:23.793Z,83.00
2017-11-30T07:07:25.294Z,83.10
2017-11-30T07:12:26.818Z,83.60
2017-11-30T07:17:28.441Z,83.50
2017-11-30T07:22:29.932Z,83.00
2017-11-30T07:27:38.589Z,83.00
2017-11-30T07:32:40.158Z,84.00
2017-11-30T07:37:42.431Z,85.50
2017-11-30T07:42:43.942Z,85.60
2017-11-30T07:47:45.480Z,85.40
2017-11-30T07:52:46.984Z,84.60
2017-11-30T07:57:48.491Z,81.20
2017-11-30T08:02:49.996Z,80.30
2017-11-30T08:07:52.256Z,77.20
2017-11-30T08:12:53.766Z,77.20
2017-11-30T08:17:55.319Z,77.90
2017-11-30T08:23:04.482Z,78.30
2017-11-30T08:28:06.021Z,78.20
2017-11-30T08:33:08.263Z,80.10
2017-11-30T08:38:09.788Z,80.00
2017-11-30T08:43:11.308Z,80.40
2017-11-30T08:48:12.831Z,80.10
2017-11-30T08:53:14.323Z,79.10
2017-11-30T08:58:15.814Z,78.90
2017-11-30T09:03:17.515Z,77.90
2017-11-30T09:08:19.783Z,78.30
2017-11-30T09:13:21.335Z,78.30
2017-11-30T09:18:22.875Z,77.60
2017-11-30T09:23:24.382Z,76.90
2017-11-30T09:28:25.907Z,75.80
2017-11-30T09:33:27.413Z,73.70
2017-11-30T09:38:28.926Z,73.90
2017-11-30T09:43:30.478Z,73.30
2017-11-30T09:48:32.759Z,74.80
2017-11-30T09:53:35.067Z,75.10
2017-11-30T09:58:36.577Z,75.10
2017-11-30T10:03:38.100Z,74.40
2017-11-30T10:08:39.606Z,74.70
2017-11-30T10:13:41.132Z,74.00
2017-11-30T10:18:42.659Z,73.40
2017-11-30T10:23:44.156Z,74.00
2017-11-30T10:28:45.666Z,74.80
2017-11-30T10:33:47.194Z,74.10
2017-11-30T10:38:48.732Z,74.80
2017-11-30T10:43:51.131Z,76.70
2017-11-30T10:48:53.390Z,77.80
2017-11-30T10:53:54.828Z,77.70
2017-11-30T10:58:56.362Z,79.10
2017-11-30T11:03:57.873Z,81.20
2017-11-30T11:08:59.417Z,82.50
2017-11-30T11:14:00.956Z,82.70
2017-11-30T11:19:02.676Z,82.10
2017-11-30T11:24:04.199Z,82.50
2017-11-30T11:29:05.756Z,82.00
2017-11-30T11:34:08.072Z,81.00
2017-11-30T11:39:09.578Z,80.90
2017-11-30T11:44:11.108Z,81.30
2017-11-30T11:49:12.635Z,80.50
2017-11-30T11:54:14.874Z,78.90
2017-11-30T11:59:16.565Z,78.90
2017-11-30T12:04:18.055Z,77.80
2017-11-30T12:09:20.303Z,75.90
2017-11-30T12:14:21.922Z,75.80
2017-11-30T12:19:24.194Z,77.80
2017-11-30T12:24:26.478Z,78.90
2017-11-30T12:29:28.793Z,79.70
2017-11-30T12:34:30.408Z,79.60
2017-11-30T12:39:31.947Z,79.60
2017-11-30T12:44:33.468Z,78.60
2017-11-30T12:49:35.738Z,78.50
2017-11-30T12:54:37.279Z,78.50
2017-11-30T12:59:38.788Z,77.40
2017-11-30T13:04:41.066Z,74.10
2017-11-30T13:09:42.628Z,74.00
2017-11-30T13:14:44.150Z,75.50
2017-11-30T13:19:45.640Z,74.60
2017-11-30T13:24:47.216Z,74.80
2017-11-30T13:29:48.736Z,75.50
2017-11-30T13:34:50.284Z,75.90
2017-11-30T13:39:52.585Z,77.80
2017-11-30T13:44:54.085Z,77.80
2017-11-30T13:49:55.642Z,78.00
2017-11-30T13:54:57.145Z,74.50
2017-11-30T13:59:58.658Z,74.30
2017-11-30T14:05:00.174Z,76.20
2017-11-30T14:10:01.698Z,76.60
2017-11-30T14:15:03.245Z,77.40
2017-11-30T14:20:04.768Z,78.10
2017-11-30T14:25:06.269Z,77.80
2017-11-30T14:30:08.562Z,74.80
2017-11-30T14:35:10.884Z,74.20
2017-11-30T14:40:19.307Z,74.10
2017-11-30T14:45:20.834Z,74.70
2017-11-30T14:50:23.126Z,75.60
2017-11-30T14:55:25.401Z,75.20
2017-11-30T15:00:27.665Z,75.80
2017-11-30T15:05:29.193Z,75.80
2017-11-30T15:10:30.725Z,76.90
2017-11-30T15:15:32.989Z,76.30
2017-11-30T15:20:34.490Z,76.30
2017-11-30T15:25:36.007Z,76.10
2017-11-30T15:30:37.687Z,76.60
2017-11-30T15:35:46.237Z,77.30
2017-11-30T15:40:48.477Z,78.70
2017-11-30T15:45:50.844Z,78.10
2017-11-30T15:50:52.401Z,78.60
2017-11-30T15:55:53.928Z,79.30
2017-11-30T16:00:55.443Z,79.80
2017-11-30T16:05:57.025Z,79.40
2017-11-30T16:10:58.502Z,80.50
2017-11-30T16:16:00.029Z,81.00
2017-11-30T16:21:02.305Z,80.90
2017-11-30T16:26:04.612Z,81.70
2017-11-30T16:31:06.138Z,81.70
2017-11-30T16:36:07.652Z,82.00
2017-11-30T16:41:09.311Z,82.60
2017-11-30T16:46:10.861Z,81.50
2017-11-30T16:51:13.132Z,83.80
2017-11-30T16:56:21.347Z,83.60
2017-11-30T17:01:22.906Z,83.50
2017-11-30T17:06:24.378Z,84.40
2017-11-30T17:11:26.104Z,84.50
2017-11-30T17:16:27.686Z,84.90
2017-11-30T17:21:29.206Z,85.30
2017-11-30T17:26:31.478Z,85.30
2017-11-30T17:31:33.196Z,85.20
2017-11-30T17:36:35.022Z,85.10
2017-11-30T17:41:37.836Z,85.60
2017-11-30T17:46:42.807Z,85.50
2017-11-30T17:51:44.605Z,85.30
2017-11-30T17:56:46.236Z,85.80
2017-11-30T18:01:47.859Z,85.70
2017-11-30T18:06:49.373Z,85.00
2017-11-30T18:11:50.925Z,84.10
2017-11-30T18:16:53.139Z,83.30
2017-11-30T18:21:54.574Z,83.30
2017-11-30T18:26:56.774Z,84.50
2017-11-30T18:31:58.241Z,84.50
2017-11-30T18:36:59.756Z,85.40
2017-11-30T18:42:01.349Z,85.50
2017-11-30T18:47:02.993Z,85.60
2017-11-30T18:52:04.549Z,86.00
2017-11-30T18:57:06.140Z,85.60
2017-11-30T19:02:07.689Z,85.70
2017-11-30T19:07:09.188Z,85.70
2017-11-30T19:12:10.721Z,84.80
2017-11-30T19:17:12.361Z,84.60
2017-11-30T19:22:13.908Z,84.40
2017-11-30T19:27:16.253Z,83.50
2017-11-30T19:32:17.789Z,83.40
2017-11-30T19:37:19.352Z,83.20
2017-11-30T19:42:20.865Z,82.60
2017-11-30T19:47:22.338Z,82.70
2017-11-30T19:52:23.886Z,82.30
2017-11-30T19:57:25.523Z,82.00
2017-11-30T20:02:27.136Z,82.20
2017-11-30T20:07:28.665Z,82.60
2017-11-30T20:12:30.238Z,82.60
2017-11-30T20:17:31.838Z,82.60
2017-11-30T20:22:33.509Z,82.40
2017-11-30T20:27:35.992Z,81.90
2017-11-30T20:32:37.593Z,81.90
2017-11-30T20:37:39.847Z,81.50
2017-11-30T20:42:41.462Z,81.40
2017-11-30T20:47:43.038Z,81.00
2017-11-30T20:52:44.723Z,81.00
2017-11-30T20:57:46.307Z,80.80
2017-11-30T21:02:47.999Z,80.60
2017-11-30T21:07:49.584Z,80.50
2017-11-30T21:12:51.167Z,80.70
2017-11-30T21:17:53.438Z,80.40
2017-11-30T21:22:55.055Z,80.30
2017-11-30T21:27:56.794Z,80.40
2017-11-30T21:32:59.121Z,80.40
2017-11-30T21:38:00.939Z,80.30
2017-11-30T21:43:02.542Z,80.00
2017-11-30T21:48:04.113Z,79.20
2017-11-30T21:53:05.672Z,79.10
2017-11-30T21:58:07.427Z,78.40
2017-11-30T22:03:09.770Z,78.70
2017-11-30T22:08:11.334Z,78.50
2017-11-30T22:13:12.999Z,78.60
2017-11-30T22:18:15.202Z,77.90
2017-11-30T22:23:16.636Z,77.90
2017-11-30T22:28:18.169Z,77.70
2017-11-30T22:33:20.454Z,78.70
2017-11-30T22:38:22.657Z,78.80
2017-11-30T22:43:24.178Z,78.70
2017-11-30T22:48:25.638Z,78.20
2017-11-30T22:53:27.157Z,78.50
2017-11-30T22:58:28.686Z,79.20
2017-11-30T23:03:30.195Z,79.00
2017-11-30T23:08:31.801Z,79.20
2017-11-30T23:13:33.388Z,79.60
2017-11-30T23:18:34.909Z,79.60
2017-11-30T23:23:36.455Z,79.60
2017-11-30T23:28:38.810Z,80.60
2017-11-30T23:33:40.437Z,80.60
2017-11-30T23:38:41.957Z,81.30
2017-11-30T23:43:43.476Z,81.70
2017-11-30T23:48:44.989Z,81.90
2017-11-30T23:53:46.532Z,82.00
2017-11-30T23:58:48.048Z,82.40
